Time;durP1;ratioP1;P1;durP2;ratioP2;P2;SDS_P1;SDS_P2;PMS_P1;PMS_P2;Temp;Humidity;BMP_temperature;BMP_pressure;BME280_temperature;BME280_humidity;BME280_pressure;Samples;Min_cycle;Max_cycle;Signal;HPM_P1;HPM_P2
2023/11/14 00:02:24;;;;;;;17.63;3.67;;;11.50;99.90;;;;;;5059024;28;20419;-74
2023/11/14 00:05:12;;;;;;;13.93;3.03;;;11.40;99.90;;;;;;5061174;28;20465;-73
2023/11/14 00:07:58;;;;;;;18.23;3.20;;;11.30;99.90;;;;;;5065553;28;20481;-73
2023/11/14 00:10:44;;;;;;;13.47;3.50;;;11.20;99.90;;;;;;5050609;28;20826;-73
2023/11/14 00:13:29;;;;;;;14.27;2.60;;;11.10;99.90;;;;;;5057541;28;20451;-72
2023/11/14 00:16:15;;;;;;;21.80;3.20;;;11.10;99.90;;;;;;5058370;28;20444;-73
2023/11/14 00:19:00;;;;;;;13.60;3.53;;;11.10;99.90;;;;;;5060764;28;20515;-73
2023/11/14 00:21:47;;;;;;;14.63;3.10;;;11.20;99.90;;;;;;5055078;28;20417;-73
2023/11/14 00:24:33;;;;;;;26.00;4.90;;;11.20;99.90;;;;;;5062545;28;20471;-73
2023/11/14 00:27:19;;;;;;;9.50;3.23;;;11.30;99.90;;;;;;5057870;28;20444;-73
2023/11/14 00:30:06;;;;;;;22.17;3.70;;;11.40;99.90;;;;;;5052598;28;20529;-72
2023/11/14 00:32:52;;;;;;;13.17;3.50;;;11.40;99.90;;;;;;5059579;28;20501;-73
2023/11/14 00:35:38;;;;;;;26.73;4.67;;;11.40;99.90;;;;;;5061089;28;21048;-73
2023/11/14 00:38:25;;;;;;;14.00;4.30;;;11.30;99.90;;;;;;5057969;28;20441;-73
2023/11/14 00:41:10;;;;;;;11.60;3.20;;;11.30;99.90;;;;;;5051888;28;20450;-72
2023/11/14 00:43:56;;;;;;;29.63;3.37;;;11.30;99.90;;;;;;5061079;28;20572;-73
2023/11/14 00:46:41;;;;;;;10.67;2.57;;;11.30;99.90;;;;;;5056295;28;20426;-73
2023/11/14 00:49:27;;;;;;;13.20;3.00;;;11.20;99.90;;;;;;5063873;28;20452;-73
2023/11/14 00:52:14;;;;;;;20.00;3.83;;;11.20;99.90;;;;;;5055799;28;20478;-73
2023/11/14 00:55:01;;;;;;;15.97;3.07;;;11.00;99.90;;;;;;5059071;28;20549;-73
2023/11/14 00:57:47;;;;;;;19.43;3.53;;;10.90;99.90;;;;;;5055917;28;20956;-73
2023/11/14 01:00:32;;;;;;;14.80;4.10;;;10.90;99.90;;;;;;5054265;28;20433;-73
2023/11/14 01:03:20;;;;;;;18.90;3.73;;;10.90;99.90;;;;;;5054881;28;21116;-72
2023/11/14 01:06:06;;;;;;;15.83;3.70;;;10.90;99.90;;;;;;5053840;28;20544;-73
2023/11/14 01:08:52;;;;;;;22.70;3.90;;;10.90;99.90;;;;;;5055617;28;20834;-73
2023/11/14 01:11:39;;;;;;;15.03;3.17;;;11.00;99.90;;;;;;5060749;28;20556;-73
2023/11/14 01:14:25;;;;;;;26.77;4.37;;;11.00;99.90;;;;;;5057603;28;20588;-73
2023/11/14 01:17:10;;;;;;;10.20;2.70;;;10.90;99.90;;;;;;5058903;28;20452;-73
2023/11/14 01:19:56;;;;;;;17.10;3.10;;;10.80;99.90;;;;;;5057015;28;20437;-72
2023/11/14 01:22:42;;;;;;;14.73;3.60;;;10.70;99.90;;;;;;5053486;28;20835;-73
2023/11/14 01:25:28;;;;;;;12.53;2.70;;;10.60;99.90;;;;;;5059572;28;20538;-73
2023/11/14 01:28:15;;;;;;;16.47;3.10;;;10.50;99.90;;;;;;5055730;28;20464;-73
2023/11/14 01:31:01;;;;;;;16.50;3.57;;;10.30;99.90;;;;;;5059797;28;20443;-73
2023/11/14 01:33:47;;;;;;;10.43;2.30;;;10.30;99.90;;;;;;5061272;28;20505;-73
2023/11/14 01:36:32;;;;;;;13.33;2.80;;;10.30;99.90;;;;;;5060373;28;20422;-73
2023/11/14 01:39:18;;;;;;;8.10;2.57;;;10.20;99.90;;;;;;5057444;28;20400;-72
2023/11/14 01:42:03;;;;;;;12.50;2.57;;;10.20;99.90;;;;;;5057997;28;20433;-73
2023/11/14 01:44:51;;;;;;;6.37;2.60;;;10.20;99.90;;;;;;5054056;28;21015;-75
2023/11/14 01:47:37;;;;;;;15.50;3.53;;;10.30;99.90;;;;;;5033851;28;21020;-75
2023/11/14 01:50:22;;;;;;;12.70;2.20;;;10.40;99.90;;;;;;5050611;28;20516;-75
2023/11/14 01:53:08;;;;;;;15.10;3.40;;;10.50;99.90;;;;;;5045597;28;20457;-74
2023/11/14 01:55:55;;;;;;;15.70;3.27;;;10.40;99.90;;;;;;5048400;28;20483;-74
2023/11/14 01:58:41;;;;;;;14.30;2.80;;;10.30;99.90;;;;;;5049457;28;20444;-74
2023/11/14 02:01:29;;;;;;;12.43;2.90;;;10.30;99.90;;;;;;5042857;28;20421;-75
2023/11/14 02:04:19;;;;;;;14.47;3.17;;;10.20;99.90;;;;;;5053016;28;20433;-75
2023/11/14 02:07:05;;;;;;;11.63;2.60;;;10.20;99.90;;;;;;5061839;28;20438;-73
2023/11/14 02:09:51;;;;;;;18.17;2.67;;;10.10;99.90;;;;;;5046613;28;20447;-73
2023/11/14 02:12:37;;;;;;;10.50;3.63;;;10.00;99.90;;;;;;5052074;28;20441;-73
2023/11/14 02:15:22;;;;;;;11.20;3.10;;;9.90;99.90;;;;;;5052745;28;20451;-72
2023/11/14 02:18:10;;;;;;;10.70;2.37;;;9.90;99.90;;;;;;5047137;28;20514;-73
2023/11/14 02:20:56;;;;;;;12.13;3.00;;;9.90;99.90;;;;;;5051378;28;20832;-75
2023/11/14 02:23:46;;;;;;;6.43;2.30;;;9.70;99.90;;;;;;5058406;28;20449;-75
2023/11/14 02:26:33;;;;;;;14.47;2.20;;;9.70;99.90;;;;;;5061694;28;20562;-75
2023/11/14 02:29:21;;;;;;;14.00;3.43;;;9.60;99.90;;;;;;5058736;28;20486;-75
2023/11/14 02:32:07;;;;;;;9.47;2.73;;;9.60;99.90;;;;;;5051633;28;20445;-75
2023/11/14 02:34:53;;;;;;;21.47;4.30;;;9.70;99.90;;;;;;5052491;28;20477;-75
2023/11/14 02:37:39;;;;;;;13.20;3.20;;;9.70;99.90;;;;;;5056243;28;20453;-75
2023/11/14 02:40:25;;;;;;;13.60;2.53;;;9.70;99.90;;;;;;5058965;28;20810;-75
2023/11/14 02:43:12;;;;;;;23.20;4.10;;;9.60;99.90;;;;;;5052522;28;20793;-75
2023/11/14 02:45:57;;;;;;;10.23;3.20;;;9.60;99.90;;;;;;5051698;28;20546;-74
2023/11/14 02:48:43;;;;;;;11.37;3.50;;;9.60;99.90;;;;;;5056402;28;20476;-74
2023/11/14 02:51:29;;;;;;;23.40;3.73;;;9.60;99.90;;;;;;5066945;28;20471;-74
2023/11/14 02:54:15;;;;;;;12.93;2.83;;;9.60;99.90;;;;;;5060839;28;20998;-75
2023/11/14 02:57:01;;;;;;;17.20;2.80;;;9.60;99.90;;;;;;5055849;28;20430;-75
2023/11/14 02:59:49;;;;;;;14.70;3.67;;;9.60;99.90;;;;;;5051233;28;20429;-75
2023/11/14 03:02:34;;;;;;;13.07;2.80;;;9.60;99.90;;;;;;5042396;28;20433;-75
2023/11/14 03:05:20;;;;;;;16.47;3.20;;;9.60;99.90;;;;;;5060279;28;20511;-74
2023/11/14 03:08:06;;;;;;;14.73;3.10;;;9.60;99.90;;;;;;5065541;28;20917;-75
2023/11/14 03:10:51;;;;;;;20.13;2.87;;;9.50;99.90;;;;;;5057612;28;20446;-75
2023/11/14 03:13:37;;;;;;;20.33;4.40;;;9.50;99.90;;;;;;5069230;28;20905;-76
2023/11/14 03:16:24;;;;;;;18.03;3.30;;;9.50;99.90;;;;;;5062908;28;20453;-75
2023/11/14 03:19:09;;;;;;;17.00;4.10;;;9.40;99.90;;;;;;5057011;28;20399;-73
2023/11/14 03:21:55;;;;;;;15.23;3.10;;;9.50;99.90;;;;;;5055996;28;20526;-73
2023/11/14 03:24:41;;;;;;;16.73;3.73;;;9.50;99.90;;;;;;5062138;28;20560;-73
2023/11/14 03:27:27;;;;;;;14.33;3.73;;;9.60;99.90;;;;;;5058420;28;20404;-74
2023/11/14 03:30:13;;;;;;;8.97;3.33;;;9.70;99.90;;;;;;5064402;28;20474;-75
2023/11/14 03:33:00;;;;;;;23.50;3.80;;;9.70;99.90;;;;;;5056267;28;20922;-76
2023/11/14 03:35:45;;;;;;;13.53;3.70;;;9.80;99.90;;;;;;5058238;28;20914;-73
2023/11/14 03:38:31;;;;;;;17.17;3.20;;;9.90;99.90;;;;;;5053782;28;20440;-73
2023/11/14 03:41:17;;;;;;;21.87;3.30;;;10.10;99.90;;;;;;5060524;28;20425;-74
2023/11/14 03:44:03;;;;;;;20.17;6.47;;;10.20;99.90;;;;;;5052198;28;20940;-73
2023/11/14 03:46:48;;;;;;;9.57;2.90;;;10.20;99.90;;;;;;5055051;28;20435;-74
2023/11/14 03:49:35;;;;;;;31.03;5.43;;;10.30;99.90;;;;;;5054181;28;20937;-74
2023/11/14 03:52:21;;;;;;;15.90;3.83;;;10.40;99.90;;;;;;5060312;28;20497;-76
2023/11/14 03:55:07;;;;;;;21.97;4.20;;;10.40;99.90;;;;;;5055937;28;20463;-73
2023/11/14 03:57:53;;;;;;;14.37;2.90;;;10.40;99.90;;;;;;5055350;28;20912;-74
2023/11/14 04:00:38;;;;;;;14.10;3.27;;;10.50;99.90;;;;;;5051997;28;20426;-74
2023/11/14 04:03:24;;;;;;;17.63;3.50;;;10.50;99.90;;;;;;5061067;28;20995;-73
2023/11/14 04:06:12;;;;;;;22.47;4.00;;;10.50;99.90;;;;;;5059991;28;20424;-74
2023/11/14 04:08:58;;;;;;;17.03;3.83;;;10.50;99.90;;;;;;5050775;28;20647;-74
2023/11/14 04:11:47;;;;;;;21.73;3.13;;;10.60;99.90;;;;;;5052019;28;20410;-74
2023/11/14 04:14:32;;;;;;;8.10;3.03;;;10.60;99.90;;;;;;5058532;28;20460;-74
2023/11/14 04:17:18;;;;;;;13.10;4.07;;;10.50;99.90;;;;;;5049036;28;20392;-76
2023/11/14 04:20:05;;;;;;;14.87;3.40;;;10.60;99.90;;;;;;5061358;28;20441;-74
2023/11/14 04:22:52;;;;;;;17.23;3.50;;;10.70;99.90;;;;;;5052880;28;20400;-73
2023/11/14 04:25:37;;;;;;;14.43;3.47;;;10.70;99.90;;;;;;5064783;28;20806;-73
2023/11/14 04:28:23;;;;;;;25.47;4.20;;;10.80;99.90;;;;;;5056974;28;20432;-74
2023/11/14 04:31:10;;;;;;;12.47;3.80;;;10.80;99.90;;;;;;5053884;28;20437;-74
2023/11/14 04:33:55;;;;;;;19.67;3.00;;;10.90;99.90;;;;;;5053984;28;20430;-73
2023/11/14 04:36:41;;;;;;;10.77;2.93;;;10.90;99.90;;;;;;5057352;28;20800;-76
2023/11/14 04:39:29;;;;;;;10.27;2.43;;;11.00;99.90;;;;;;5048862;28;20499;-73
2023/11/14 04:42:15;;;;;;;23.20;3.93;;;11.00;99.90;;;;;;5064365;28;20397;-73
2023/11/14 04:45:01;;;;;;;17.83;3.50;;;11.10;99.90;;;;;;5054917;28;20456;-73
2023/11/14 04:47:46;;;;;;;17.17;3.63;;;11.10;99.90;;;;;;5063265;28;20951;-74
2023/11/14 04:50:32;;;;;;;17.27;3.60;;;11.10;99.90;;;;;;5054576;28;20484;-79
2023/11/14 04:53:18;;;;;;;21.37;4.30;;;11.10;99.90;;;;;;5064526;28;20404;-74
2023/11/14 04:56:05;;;;;;;11.03;2.90;;;11.10;99.90;;;;;;5059682;28;20445;-74
2023/11/14 04:58:51;;;;;;;16.37;3.23;;;11.10;99.90;;;;;;5056478;28;20955;-74
2023/11/14 05:01:36;;;;;;;22.47;3.80;;;11.20;99.90;;;;;;5056165;28;20404;-75
2023/11/14 05:04:22;;;;;;;13.77;3.40;;;11.20;99.90;;;;;;5060420;28;21146;-74
2023/11/14 05:07:08;;;;;;;18.77;4.20;;;11.20;99.90;;;;;;5046367;28;20506;-73
2023/11/14 05:09:53;;;;;;;22.37;4.40;;;11.20;99.90;;;;;;5054834;28;20443;-74
2023/11/14 05:12:40;;;;;;;20.50;2.87;;;11.30;99.90;;;;;;5053249;28;20551;-74
2023/11/14 05:15:26;;;;;;;20.23;6.00;;;11.20;99.90;;;;;;5054733;28;20455;-74
2023/11/14 05:18:12;;;;;;;15.70;4.00;;;11.30;99.90;;;;;;5054168;28;20445;-73
2023/11/14 05:20:57;;;;;;;13.60;3.40;;;11.30;99.90;;;;;;5058772;28;20539;-74
2023/11/14 05:23:43;;;;;;;21.47;4.30;;;11.30;99.90;;;;;;5057470;28;20447;-74
2023/11/14 05:26:29;;;;;;;19.17;3.37;;;11.20;99.90;;;;;;5058122;28;20450;-75
2023/11/14 05:29:16;;;;;;;16.57;3.03;;;11.20;99.90;;;;;;5060981;28;21016;-73
2023/11/14 05:32:02;;;;;;;13.03;2.93;;;11.20;99.90;;;;;;5057781;28;20587;-74
2023/11/14 05:34:48;;;;;;;17.73;3.63;;;11.20;99.90;;;;;;5063713;28;20866;-74
2023/11/14 05:37:33;;;;;;;13.30;2.70;;;11.20;99.90;;;;;;5053312;28;20575;-74
2023/11/14 05:40:19;;;;;;;16.43;4.30;;;11.20;99.90;;;;;;5061142;28;20419;-77
2023/11/14 05:43:07;;;;;;;23.00;3.73;;;11.20;99.90;;;;;;5062280;28;20422;-76
2023/11/14 05:45:55;;;;;;;17.93;3.27;;;11.20;99.90;;;;;;5047707;28;20480;-75
2023/11/14 05:48:40;;;;;;;21.03;9.93;;;11.20;99.90;;;;;;5055393;28;20506;-73
2023/11/14 05:51:26;;;;;;;24.10;3.83;;;11.20;99.90;;;;;;5053084;28;20456;-74
2023/11/14 05:54:12;;;;;;;14.53;3.70;;;11.20;99.90;;;;;;5051961;28;20416;-75
2023/11/14 05:56:58;;;;;;;15.80;3.77;;;11.30;99.90;;;;;;5057776;28;21174;-73
2023/11/14 05:59:45;;;;;;;18.90;3.43;;;11.20;99.90;;;;;;5060453;28;20401;-73
2023/11/14 06:02:33;;;;;;;11.20;3.10;;;11.20;99.90;;;;;;5053481;28;20523;-74
2023/11/14 06:05:18;;;;;;;21.50;3.17;;;11.30;99.90;;;;;;5050889;28;20543;-74
2023/11/14 06:08:04;;;;;;;12.20;3.70;;;11.30;99.90;;;;;;5058551;28;20427;-74
2023/11/14 06:10:50;;;;;;;16.70;3.73;;;11.30;99.90;;;;;;5055702;28;20448;-77
2023/11/14 06:13:35;;;;;;;14.23;3.23;;;11.30;99.90;;;;;;5060843;28;20435;-73
2023/11/14 06:16:21;;;;;;;19.63;3.03;;;11.40;99.90;;;;;;5057761;28;20451;-73
2023/11/14 06:19:08;;;;;;;15.20;3.00;;;11.40;99.90;;;;;;5060548;28;20428;-74
2023/11/14 06:21:53;;;;;;;17.10;3.80;;;11.40;99.90;;;;;;5057142;28;20494;-73
2023/11/14 06:24:39;;;;;;;10.33;2.90;;;11.50;99.90;;;;;;5053495;28;20508;-73
2023/11/14 06:27:25;;;;;;;14.50;3.43;;;11.50;99.90;;;;;;5055784;28;20445;-74
2023/11/14 06:30:11;;;;;;;7.87;2.53;;;11.50;99.90;;;;;;5057606;28;20507;-74
2023/11/14 06:32:57;;;;;;;17.63;2.93;;;11.60;99.90;;;;;;5060039;28;20446;-74
2023/11/14 06:35:47;;;;;;;15.33;2.93;;;11.60;99.90;;;;;;5051778;28;20451;-74
2023/11/14 06:38:33;;;;;;;17.03;3.33;;;11.50;99.90;;;;;;5069604;28;20464;-77
2023/11/14 06:41:18;;;;;;;9.70;2.47;;;11.60;99.90;;;;;;5051458;28;20407;-74
2023/11/14 06:44:04;;;;;;;9.80;2.40;;;11.60;99.90;;;;;;5063548;28;20837;-73
2023/11/14 06:46:50;;;;;;;16.13;2.70;;;11.50;99.90;;;;;;5054040;28;20445;-74
2023/11/14 06:49:35;;;;;;;17.03;3.87;;;11.50;99.90;;;;;;5062204;28;20862;-74
2023/11/14 06:52:22;;;;;;;12.93;4.47;;;11.50;99.90;;;;;;5056415;28;20414;-74
2023/11/14 06:55:08;;;;;;;12.83;2.83;;;11.50;99.90;;;;;;5058661;28;20477;-73
2023/11/14 06:57:54;;;;;;;12.43;2.93;;;11.50;99.90;;;;;;5052758;28;20419;-73
2023/11/14 07:00:41;;;;;;;16.80;3.07;;;11.60;99.90;;;;;;5055577;28;20455;-73
2023/11/14 07:03:30;;;;;;;15.93;2.50;;;11.60;99.90;;;;;;5055855;28;20446;-73
2023/11/14 07:06:16;;;;;;;16.87;3.00;;;11.60;99.90;;;;;;5060174;28;20451;-73
2023/11/14 07:09:03;;;;;;;19.70;3.10;;;11.60;99.90;;;;;;5068647;28;20826;-74
2023/11/14 07:11:49;;;;;;;12.20;3.30;;;11.70;99.90;;;;;;5054212;28;20603;-74
2023/11/14 07:14:35;;;;;;;15.47;3.33;;;11.70;99.90;;;;;;5056037;28;20457;-73
2023/11/14 07:17:21;;;;;;;22.50;4.00;;;11.70;99.90;;;;;;5063639;28;20466;-73
2023/11/14 07:20:10;;;;;;;9.37;2.67;;;11.60;99.90;;;;;;5068402;28;20444;-74
2023/11/14 07:22:56;;;;;;;12.70;3.60;;;11.70;99.90;;;;;;5052113;28;20587;-73
2023/11/14 07:25:43;;;;;;;10.57;2.70;;;11.70;99.90;;;;;;5053211;28;20474;-76
2023/11/14 07:28:29;;;;;;;15.70;3.10;;;11.70;99.90;;;;;;5053494;28;20442;-72
2023/11/14 07:31:15;;;;;;;26.87;3.50;;;11.70;99.90;;;;;;5053454;28;20478;-72
2023/11/14 07:34:01;;;;;;;13.97;2.93;;;11.70;99.90;;;;;;5060048;28;20807;-78
2023/11/14 07:36:46;;;;;;;13.53;2.53;;;11.80;99.90;;;;;;5065898;28;20823;-72
2023/11/14 07:39:32;;;;;;;25.30;3.60;;;11.80;99.90;;;;;;5058889;28;20441;-74
2023/11/14 07:42:19;;;;;;;16.50;3.83;;;11.80;99.90;;;;;;5059202;28;20823;-74
2023/11/14 07:45:06;;;;;;;12.93;3.30;;;11.80;99.90;;;;;;5065759;28;20469;-72
2023/11/14 07:47:52;;;;;;;8.10;3.47;;;11.80;99.90;;;;;;5063239;28;20805;-72
2023/11/14 07:50:37;;;;;;;17.93;3.30;;;11.80;99.90;;;;;;5056335;28;20479;-72
2023/11/14 07:53:24;;;;;;;12.43;2.90;;;11.80;99.90;;;;;;5053660;28;20430;-73
2023/11/14 07:56:09;;;;;;;18.17;3.40;;;11.80;99.90;;;;;;5057714;28;20469;-72
2023/11/14 07:58:57;;;;;;;15.63;4.67;;;11.90;99.90;;;;;;5065478;28;20436;-72
2023/11/14 08:01:43;;;;;;;18.90;3.60;;;11.90;99.90;;;;;;5055058;28;20467;-75
2023/11/14 08:04:29;;;;;;;20.93;5.33;;;12.00;99.90;;;;;;5062904;28;20451;-71
2023/11/14 08:07:15;;;;;;;10.40;2.87;;;12.00;99.90;;;;;;5052558;28;20431;-72
2023/11/14 08:10:01;;;;;;;12.70;3.30;;;12.00;99.90;;;;;;5054902;28;20967;-72
2023/11/14 08:12:47;;;;;;;12.83;2.93;;;12.10;99.90;;;;;;5064120;28;20484;-72
2023/11/14 08:15:34;;;;;;;18.80;2.97;;;12.10;99.90;;;;;;5058319;28;20476;-71
2023/11/14 08:18:19;;;;;;;16.33;2.77;;;12.10;99.90;;;;;;5051104;28;20999;-74
2023/11/14 08:21:05;;;;;;;14.53;3.77;;;12.20;99.90;;;;;;5052349;28;20577;-72
2023/11/14 08:23:51;;;;;;;10.60;2.87;;;12.20;99.90;;;;;;5060373;28;20484;-72
2023/11/14 08:26:37;;;;;;;11.30;3.00;;;12.20;99.90;;;;;;5053317;28;20783;-72
2023/11/14 08:29:23;;;;;;;14.10;4.50;;;12.20;99.90;;;;;;5052982;28;20436;-74
2023/11/14 08:32:12;;;;;;;12.73;2.87;;;12.20;99.90;;;;;;5057155;28;20452;-74
2023/11/14 08:34:58;;;;;;;11.83;3.53;;;12.20;99.90;;;;;;5050469;28;20926;-71
2023/11/14 08:37:44;;;;;;;20.00;2.97;;;12.10;99.90;;;;;;5057139;28;20426;-71
2023/11/14 08:40:30;;;;;;;11.70;3.20;;;12.10;99.90;;;;;;5054568;28;20816;-72
2023/11/14 08:43:16;;;;;;;8.30;3.27;;;12.10;99.90;;;;;;5053556;28;20495;-73
2023/11/14 08:46:01;;;;;;;14.93;4.07;;;12.20;99.90;;;;;;5052347;28;20986;-74
2023/11/14 08:48:49;;;;;;;12.93;2.20;;;12.20;99.90;;;;;;5053992;28;20791;-71
2023/11/14 08:51:35;;;;;;;14.00;2.43;;;12.30;99.90;;;;;;5052126;28;20618;-71
2023/11/14 08:54:20;;;;;;;8.40;3.10;;;12.40;99.90;;;;;;5057075;28;22142;-72
2023/11/14 08:57:06;;;;;;;16.00;3.10;;;12.50;99.90;;;;;;5049064;28;20438;-71
2023/11/14 08:59:52;;;;;;;12.87;3.17;;;12.50;99.90;;;;;;5056564;28;20425;-76
2023/11/14 09:02:38;;;;;;;18.00;2.93;;;12.60;99.90;;;;;;5055615;28;20519;-76
2023/11/14 09:05:26;;;;;;;9.80;2.93;;;12.70;99.90;;;;;;5048693;28;20486;-71
2023/11/14 09:08:11;;;;;;;8.77;3.00;;;12.80;99.90;;;;;;5052825;28;20409;-72
2023/11/14 09:10:58;;;;;;;10.00;3.73;;;12.80;99.90;;;;;;5049933;28;20441;-71
2023/11/14 09:13:45;;;;;;;11.90;2.30;;;12.80;99.90;;;;;;5051304;28;21208;-73
2023/11/14 09:16:31;;;;;;;8.87;2.80;;;12.80;99.90;;;;;;5086675;22;21002;-72
2023/11/14 09:19:17;;;;;;;12.07;2.93;;;12.70;99.90;;;;;;5069458;28;20445;-72
2023/11/14 09:22:05;;;;;;;9.37;2.33;;;12.70;99.90;;;;;;5075048;28;20427;-72
2023/11/14 09:24:51;;;;;;;19.17;4.87;;;12.60;99.90;;;;;;5070744;28;20443;-72
2023/11/14 09:27:37;;;;;;;9.63;2.37;;;12.60;99.90;;;;;;5071296;28;20419;-72
2023/11/14 09:30:23;;;;;;;10.90;2.53;;;12.60;99.90;;;;;;5065062;28;20497;-72
2023/11/14 09:33:09;;;;;;;17.10;2.77;;;12.60;99.90;;;;;;5064400;28;20424;-72
2023/11/14 09:35:55;;;;;;;8.47;3.20;;;12.60;99.90;;;;;;5077735;28;20548;-72
2023/11/14 09:38:42;;;;;;;15.93;3.47;;;12.70;99.90;;;;;;5063581;28;20449;-72
2023/11/14 09:41:28;;;;;;;22.93;3.47;;;12.60;99.90;;;;;;5072804;28;20818;-73
2023/11/14 09:44:14;;;;;;;15.23;2.47;;;12.60;99.90;;;;;;5090128;28;21050;-72
2023/11/14 09:47:00;;;;;;;9.47;3.27;;;12.60;99.90;;;;;;5081118;28;20456;-72
2023/11/14 09:49:46;;;;;;;24.80;3.83;;;12.60;99.90;;;;;;5066638;28;20492;-72
2023/11/14 09:52:33;;;;;;;13.23;2.60;;;12.50;99.90;;;;;;5060877;28;20472;-72
2023/11/14 09:55:20;;;;;;;17.10;3.10;;;12.50;99.90;;;;;;5075793;28;20471;-72
2023/11/14 09:58:06;;;;;;;12.67;2.37;;;12.50;99.90;;;;;;5080560;28;20391;-72
2023/11/14 10:00:52;;;;;;;16.67;2.00;;;12.50;99.90;;;;;;5073728;28;20442;-72
2023/11/14 10:03:37;;;;;;;9.33;2.30;;;12.40;99.90;;;;;;5063265;28;20450;-72
2023/11/14 10:06:23;;;;;;;11.20;2.30;;;12.50;99.90;;;;;;5072071;28;20623;-72
2023/11/14 10:09:09;;;;;;;19.50;2.70;;;12.40;99.90;;;;;;5072196;28;20395;-72
2023/11/14 10:11:57;;;;;;;13.17;3.07;;;12.50;99.90;;;;;;5068892;28;20451;-72
2023/11/14 10:14:45;;;;;;;17.17;4.80;;;12.50;99.90;;;;;;5064276;28;20984;-72
2023/11/14 10:17:45;;;;;;;11.63;2.20;;;12.50;99.90;;;;;;5065097;28;20572;-72
2023/11/14 10:20:38;;;;;;;15.80;3.20;;;12.50;99.90;;;;;;5070399;28;20409;-72
2023/11/14 10:23:32;;;;;;;12.87;2.77;;;12.40;99.90;;;;;;5078922;28;20456;-74
2023/11/14 10:26:17;;;;;;;6.60;2.20;;;12.40;99.90;;;;;;5068046;28;20503;-72
2023/11/14 10:29:04;;;;;;;13.13;2.67;;;12.50;99.90;;;;;;5067810;28;20518;-72
2023/11/14 10:31:51;;;;;;;12.30;2.60;;;12.50;99.90;;;;;;5068384;28;20485;-72
2023/11/14 10:34:37;;;;;;;10.43;2.30;;;12.40;99.90;;;;;;5079597;28;20453;-72
2023/11/14 10:37:34;;;;;;;16.43;3.13;;;12.40;99.90;;;;;;5081210;28;20453;-72
2023/11/14 10:40:20;;;;;;;11.03;2.70;;;12.40;99.90;;;;;;5063197;28;20436;-72
2023/11/14 10:43:05;;;;;;;12.07;2.70;;;12.40;99.90;;;;;;5068885;28;20445;-72
2023/11/14 10:45:53;;;;;;;6.90;2.53;;;12.50;99.90;;;;;;5066800;28;20442;-72
2023/11/14 10:48:38;;;;;;;10.77;2.40;;;12.50;99.90;;;;;;5070592;28;20437;-72
2023/11/14 10:51:24;;;;;;;14.10;2.43;;;12.50;99.90;;;;;;5069155;28;20856;-72
2023/11/14 10:54:09;;;;;;;9.40;2.87;;;12.50;99.90;;;;;;5073061;28;20425;-72
2023/11/14 10:56:55;;;;;;;12.23;2.70;;;12.50;99.90;;;;;;5076369;28;20427;-72
2023/11/14 10:59:42;;;;;;;12.63;3.20;;;12.40;99.90;;;;;;5067613;28;20430;-72
2023/11/14 11:02:32;;;;;;;12.40;2.30;;;12.40;99.90;;;;;;5068695;28;20393;-72
2023/11/14 11:05:20;;;;;;;10.57;1.97;;;12.40;99.90;;;;;;5070742;28;20919;-73
2023/11/14 11:08:07;;;;;;;10.53;2.80;;;12.50;99.90;;;;;;5084357;28;20431;-72
2023/11/14 11:10:54;;;;;;;11.67;2.27;;;12.50;99.90;;;;;;5074601;28;20453;-72
2023/11/14 11:13:41;;;;;;;12.57;3.77;;;12.50;99.90;;;;;;5072444;28;20817;-72
2023/11/14 11:16:46;;;;;;;6.90;2.87;;;12.50;99.90;;;;;;5068725;28;20477;-72
2023/11/14 11:19:33;;;;;;;13.50;2.73;;;12.50;99.90;;;;;;5075805;28;20452;-73
2023/11/14 11:22:20;;;;;;;17.23;3.10;;;12.50;99.90;;;;;;5063486;28;20462;-73
2023/11/14 11:25:26;;;;;;;16.13;3.00;;;12.50;99.90;;;;;;5073016;28;20469;-72
2023/11/14 11:28:39;;;;;;;11.60;2.57;;;12.50;99.90;;;;;;5069793;28;20553;-72
2023/11/14 11:31:25;;;;;;;11.00;2.17;;;12.50;99.90;;;;;;5068722;28;20523;-72
2023/11/14 11:34:28;;;;;;;10.13;1.97;;;12.60;99.90;;;;;;5078185;28;20444;-72
2023/11/14 11:37:45;;;;;;;12.13;2.23;;;12.60;99.90;;;;;;5066583;28;20428;-72
2023/11/14 11:40:32;;;;;;;12.43;2.37;;;12.70;99.90;;;;;;5069454;28;20465;-72
2023/11/14 11:43:20;;;;;;;6.47;2.50;;;12.70;99.90;;;;;;5074851;28;20415;-72
2023/11/14 11:46:38;;;;;;;14.33;2.50;;;12.80;99.90;;;;;;5072724;28;20468;-72
2023/11/14 11:49:31;;;;;;;15.57;2.33;;;12.80;99.90;;;;;;5076811;28;20452;-72
2023/11/14 11:52:21;;;;;;;9.77;2.50;;;12.90;99.90;;;;;;5064453;28;20537;-72
2023/11/14 11:55:18;;;;;;;9.60;2.77;;;12.80;99.90;;;;;;5071959;28;20622;-72
2023/11/14 11:58:06;;;;;;;5.90;1.83;;;12.90;99.90;;;;;;5073361;28;20453;-72
2023/11/14 12:00:51;;;;;;;8.40;2.40;;;12.90;99.90;;;;;;5071208;28;20532;-72
2023/11/14 12:03:37;;;;;;;12.33;2.63;;;12.90;99.90;;;;;;5066976;28;20425;-72
2023/11/14 12:06:23;;;;;;;5.30;2.13;;;12.90;99.90;;;;;;5069738;28;21033;-72
2023/11/14 12:09:12;;;;;;;12.80;2.17;;;12.90;99.90;;;;;;5087563;28;20413;-72
2023/11/14 12:12:00;;;;;;;10.67;3.00;;;12.90;99.90;;;;;;5067172;28;20448;-72
2023/11/14 12:14:46;;;;;;;7.97;2.50;;;12.90;99.90;;;;;;5084049;28;20889;-72
2023/11/14 12:17:33;;;;;;;9.30;2.27;;;12.90;99.90;;;;;;5069248;28;20471;-72
2023/11/14 12:20:20;;;;;;;7.10;2.90;;;13.00;99.90;;;;;;5071707;28;20751;-72
2023/11/14 12:23:06;;;;;;;13.13;3.20;;;13.00;99.90;;;;;;5082211;28;20424;-72
2023/11/14 12:25:52;;;;;;;7.30;2.50;;;12.90;99.90;;;;;;5065404;28;20453;-72
2023/11/14 12:28:40;;;;;;;9.47;2.30;;;12.90;99.90;;;;;;5075298;28;20438;-72
2023/11/14 12:31:27;;;;;;;8.00;2.27;;;12.90;99.90;;;;;;5080366;28;20444;-72
2023/11/14 12:34:23;;;;;;;14.70;2.97;;;12.90;99.90;;;;;;5059760;28;20401;-72
2023/11/14 12:37:10;;;;;;;10.33;2.10;;;12.90;99.90;;;;;;5067343;28;20522;-72
2023/11/14 12:40:17;;;;;;;14.47;2.33;;;12.90;99.90;;;;;;5066607;28;20464;-72
2023/11/14 12:43:03;;;;;;;9.70;1.50;;;12.90;99.90;;;;;;5080484;28;20427;-72
2023/11/14 12:45:50;;;;;;;7.70;2.30;;;12.90;99.90;;;;;;5071737;28;20562;-72
2023/11/14 12:48:36;;;;;;;10.60;2.60;;;12.90;99.90;;;;;;5076718;28;20434;-72
2023/11/14 12:51:24;;;;;;;11.50;2.27;;;13.00;99.90;;;;;;5059618;28;20401;-72
2023/11/14 12:54:10;;;;;;;6.13;1.80;;;13.00;99.90;;;;;;5067661;28;20403;-72
2023/11/14 12:56:56;;;;;;;7.13;2.13;;;13.00;99.90;;;;;;5074178;28;20429;-72
2023/11/14 12:59:42;;;;;;;8.43;2.30;;;13.00;99.90;;;;;;5080273;28;20876;-73
2023/11/14 13:02:31;;;;;;;7.70;2.37;;;13.00;99.90;;;;;;5064654;28;20540;-72
2023/11/14 13:05:18;;;;;;;15.17;2.53;;;13.00;99.90;;;;;;5073338;28;20441;-72
2023/11/14 13:08:03;;;;;;;11.87;2.10;;;13.00;99.90;;;;;;5063462;28;20429;-72
2023/11/14 13:10:49;;;;;;;5.60;1.97;;;13.00;99.90;;;;;;5071612;28;20432;-72
2023/11/14 13:13:35;;;;;;;9.13;2.27;;;13.00;99.90;;;;;;5075979;28;20497;-72
2023/11/14 13:16:21;;;;;;;11.30;2.90;;;13.10;99.90;;;;;;5067744;28;20464;-73
2023/11/14 13:19:10;;;;;;;11.53;4.50;;;13.00;99.90;;;;;;5075691;28;20454;-73
2023/11/14 13:21:55;;;;;;;7.63;2.17;;;13.00;99.90;;;;;;5075443;28;20426;-72
2023/11/14 13:24:41;;;;;;;9.10;2.53;;;13.00;99.90;;;;;;5060621;28;20410;-73
2023/11/14 13:27:27;;;;;;;8.70;2.60;;;13.00;99.90;;;;;;5057194;28;20409;-72
2023/11/14 13:30:13;;;;;;;8.50;2.20;;;13.10;99.90;;;;;;5073054;28;20908;-72
2023/11/14 13:32:59;;;;;;;5.20;2.10;;;13.00;99.90;;;;;;5069311;28;20516;-72
2023/11/14 13:35:46;;;;;;;11.73;2.30;;;13.00;99.90;;;;;;5067389;28;20458;-72
2023/11/14 13:38:31;;;;;;;7.00;1.93;;;13.00;99.90;;;;;;5069124;28;20408;-72
2023/11/14 13:41:17;;;;;;;17.90;2.83;;;13.00;99.90;;;;;;5056392;28;20426;-72
2023/11/14 13:44:02;;;;;;;7.17;1.60;;;13.00;99.90;;;;;;5087130;28;20411;-72
2023/11/14 13:46:48;;;;;;;10.20;2.10;;;13.00;99.90;;;;;;5078805;28;20992;-72
2023/11/14 13:49:34;;;;;;;11.63;1.83;;;13.00;99.90;;;;;;5066045;28;20513;-72
2023/11/14 13:52:22;;;;;;;8.43;1.60;;;13.00;99.90;;;;;;5074131;28;20443;-72
2023/11/14 13:55:09;;;;;;;8.07;1.70;;;13.10;99.90;;;;;;5072238;28;20441;-72
2023/11/14 13:57:55;;;;;;;8.17;1.93;;;13.10;99.90;;;;;;5074081;28;20404;-72
2023/11/14 14:00:41;;;;;;;9.77;2.87;;;13.10;99.90;;;;;;5076530;28;20952;-73
2023/11/14 14:03:27;;;;;;;11.93;1.97;;;13.00;99.90;;;;;;5064440;28;20420;-72
2023/11/14 14:06:13;;;;;;;4.13;1.67;;;13.00;99.90;;;;;;5075501;28;20472;-72
2023/11/14 14:09:00;;;;;;;13.90;2.80;;;13.10;99.90;;;;;;5069908;28;20796;-73
2023/11/14 14:11:46;;;;;;;5.43;1.60;;;13.10;99.90;;;;;;5073251;28;20451;-72
2023/11/14 14:14:32;;;;;;;5.67;1.80;;;13.10;99.90;;;;;;5069138;28;20426;-72
2023/11/14 14:17:17;;;;;;;5.13;1.53;;;13.10;99.90;;;;;;5073278;28;20432;-72
2023/11/14 14:20:07;;;;;;;10.40;2.17;;;13.10;99.90;;;;;;5067319;28;20539;-73
2023/11/14 14:22:54;;;;;;;7.00;1.83;;;13.10;99.90;;;;;;5080588;28;20405;-72